WGN2187 KRDU-KFLL
Flight info
| Callsign | WGN2187 |
|---|---|
| Flight time | N/A |
| Altitude | 35000 |
| Route | ROZBO5 ROZBO GARIC/N0485F340 JRDAN Y291 MAJIK CUUDA3 |
| Aircraft | MD11/H-SDE1E2E3FGHIJ2J3J4J5M1RWXY/LB1D1 |
Departure
| Time | 2026-05-06 16:42 |
|---|---|
| Airport | Raleigh-Durham International Airport (KRDU) |
Arrival
| Time | N/A |
|---|---|
| Airport | Fort Lauderdale Hollywood International Airport (KFLL) |
| Time | Latitude | Longitude | Altitude | Speed | Heading |
|---|---|---|---|---|---|
| 2026-05-06 16:23 | 35.87622 | -78.79604 | 387 ft | 0 kts | 135° |
| 2026-05-06 16:34 | 35.87640 | -78.79627 | 386 ft | 1 kts | 134° |
| 2026-05-06 16:34 | 35.87648 | -78.79638 | 386 ft | 1 kts | 130° |
| 2026-05-06 16:34 | 35.87653 | -78.79645 | 385 ft | 1 kts | 118° |
| 2026-05-06 16:34 | 35.87657 | -78.79657 | 385 ft | 1 kts | 101° |
| 2026-05-06 16:35 | 35.87658 | -78.79666 | 384 ft | 1 kts | 85° |
| 2026-05-06 16:35 | 35.87658 | -78.79671 | 384 ft | 0 kts | 78° |
| 2026-05-06 16:36 | 35.87658 | -78.79670 | 384 ft | 0 kts | 78° |
| 2026-05-06 16:36 | 35.87671 | -78.79633 | 385 ft | 10 kts | 52° |
| 2026-05-06 16:36 | 35.87745 | -78.79533 | 388 ft | 18 kts | 44° |
| 2026-05-06 16:37 | 35.87843 | -78.79422 | 390 ft | 19 kts | 31° |
| 2026-05-06 16:37 | 35.87976 | -78.79346 | 390 ft | 20 kts | 40° |
| 2026-05-06 16:37 | 35.88079 | -78.79221 | 392 ft | 21 kts | 45° |
| 2026-05-06 16:37 | 35.88182 | -78.79094 | 396 ft | 21 kts | 45° |
| 2026-05-06 16:38 | 35.88285 | -78.78965 | 400 ft | 20 kts | 45° |
| 2026-05-06 16:38 | 35.88388 | -78.78839 | 402 ft | 21 kts | 45° |
| 2026-05-06 16:38 | 35.88492 | -78.78709 | 405 ft | 21 kts | 46° |
| 2026-05-06 16:38 | 35.88599 | -78.78577 | 404 ft | 23 kts | 43° |
| 2026-05-06 16:39 | 35.88719 | -78.78431 | 403 ft | 25 kts | 45° |
| 2026-05-06 16:39 | 35.88852 | -78.78266 | 401 ft | 28 kts | 45° |
| 2026-05-06 16:39 | 35.88995 | -78.78095 | 402 ft | 27 kts | 42° |
| 2026-05-06 16:39 | 35.89126 | -78.77930 | 405 ft | 27 kts | 45° |
| 2026-05-06 16:40 | 35.89251 | -78.77776 | 408 ft | 11 kts | 44° |
| 2026-05-06 16:40 | 35.89296 | -78.77750 | 407 ft | 6 kts | 2° |
| 2026-05-06 16:40 | 35.89334 | -78.77772 | 407 ft | 7 kts | 328° |
| 2026-05-06 16:40 | 35.89355 | -78.77806 | 406 ft | 2 kts | 269° |
| 2026-05-06 16:41 | 35.89335 | -78.77857 | 406 ft | 23 kts | 236° |
| 2026-05-06 16:41 | 35.89042 | -78.78230 | 396 ft | 94 kts | 227° |
| 2026-05-06 16:41 | 35.88431 | -78.78979 | 397 ft | 153 kts | 224° |
| 2026-05-06 16:41 | 35.87603 | -78.79981 | 794 ft | 165 kts | 222° |
| 2026-05-06 16:42 | 35.86815 | -78.80862 | 1579 ft | 156 kts | 219° |
| 2026-05-06 16:42 | 35.85970 | -78.81821 | 1934 ft | 177 kts | 224° |
| 2026-05-06 16:42 | 35.84982 | -78.82912 | 2297 ft | 203 kts | 209° |
| 2026-05-06 16:42 | 35.83541 | -78.83314 | 2832 ft | 230 kts | 179° |
| 2026-05-06 16:43 | 35.81971 | -78.82664 | 3580 ft | 255 kts | 156° |
| 2026-05-06 16:43 | 35.80446 | -78.81463 | 4470 ft | 269 kts | 153° |
| 2026-05-06 16:43 | 35.78834 | -78.80274 | 5388 ft | 276 kts | 159° |
| 2026-05-06 16:43 | 35.77082 | -78.79295 | 6347 ft | 279 kts | 166° |
| 2026-05-06 16:44 | 35.75269 | -78.78535 | 7350 ft | 282 kts | 171° |
| 2026-05-06 16:44 | 35.73356 | -78.77877 | 8335 ft | 288 kts | 173° |
| 2026-05-06 16:44 | 35.71411 | -78.77257 | 9274 ft | 295 kts | 173° |
| 2026-05-06 16:44 | 35.69433 | -78.76619 | 10191 ft | 302 kts | 173° |
| 2026-05-06 16:45 | 35.67300 | -78.75935 | 10660 ft | 328 kts | 173° |
| 2026-05-06 16:45 | 35.65002 | -78.75191 | 10974 ft | 358 kts | 172° |
| 2026-05-06 16:45 | 35.62487 | -78.74360 | 11278 ft | 389 kts | 171° |
| 2026-05-06 16:45 | 35.59817 | -78.73463 | 11859 ft | 408 kts | 171° |
| 2026-05-06 16:46 | 35.57070 | -78.72525 | 12796 ft | 417 kts | 171° |
| 2026-05-06 16:46 | 35.54263 | -78.71576 | 13851 ft | 421 kts | 171° |
| 2026-05-06 16:46 | 35.51420 | -78.70702 | 14762 ft | 425 kts | 174° |
| 2026-05-06 16:46 | 35.48479 | -78.70116 | 15572 ft | 430 kts | 179° |
| 2026-05-06 16:47 | 35.45502 | -78.69717 | 16391 ft | 437 kts | 180° |
| 2026-05-06 16:47 | 35.42467 | -78.69355 | 17200 ft | 444 kts | 180° |
| 2026-05-06 16:47 | 35.39373 | -78.68965 | 18010 ft | 452 kts | 179° |
| 2026-05-06 16:47 | 35.36221 | -78.68530 | 18814 ft | 459 kts | 179° |
| 2026-05-06 16:48 | 35.33024 | -78.68072 | 19655 ft | 464 kts | 178° |
| 2026-05-06 16:48 | 35.29804 | -78.67603 | 20439 ft | 470 kts | 178° |
| 2026-05-06 16:48 | 35.26584 | -78.67134 | 21177 ft | 476 kts | 178° |
| 2026-05-06 16:48 | 35.23279 | -78.66656 | 21989 ft | 480 kts | 178° |
| 2026-05-06 16:49 | 35.19926 | -78.66174 | 22733 ft | 485 kts | 178° |
| 2026-05-06 16:49 | 35.16568 | -78.65693 | 23520 ft | 490 kts | 178° |
| 2026-05-06 16:49 | 35.13173 | -78.65218 | 24235 ft | 495 kts | 178° |
| 2026-05-06 16:49 | 35.09753 | -78.64732 | 24972 ft | 499 kts | 178° |
| 2026-05-06 16:50 | 35.06289 | -78.64234 | 25565 ft | 506 kts | 178° |
| 2026-05-06 16:50 | 35.02788 | -78.63737 | 26281 ft | 509 kts | 178° |
| 2026-05-06 16:50 | 34.99254 | -78.63160 | 26958 ft | 516 kts | 174° |
| 2026-05-06 16:50 | 34.95754 | -78.62180 | 27760 ft | 521 kts | 168° |
| 2026-05-06 16:51 | 34.92316 | -78.60707 | 28547 ft | 527 kts | 161° |
| 2026-05-06 16:51 | 34.88974 | -78.58819 | 29392 ft | 530 kts | 158° |
| 2026-05-06 16:51 | 34.85667 | -78.56773 | 30176 ft | 531 kts | 157° |
| 2026-05-06 16:51 | 34.82410 | -78.54723 | 30916 ft | 532 kts | 158° |
| 2026-05-06 16:52 | 34.79076 | -78.52671 | 31555 ft | 534 kts | 158° |
| 2026-05-06 16:52 | 34.75740 | -78.50665 | 32171 ft | 536 kts | 159° |
| 2026-05-06 16:52 | 34.72424 | -78.48691 | 32674 ft | 539 kts | 159° |
| 2026-05-06 16:52 | 34.69036 | -78.46682 | 33337 ft | 540 kts | 159° |
| 2026-05-06 16:53 | 34.65665 | -78.44677 | 33917 ft | 541 kts | 159° |
| 2026-05-06 16:53 | 34.62291 | -78.42671 | 34389 ft | 544 kts | 160° |
| 2026-05-06 16:53 | 34.58900 | -78.40653 | 34921 ft | 546 kts | 159° |
| 2026-05-06 16:54 | 34.52073 | -78.36558 | 34989 ft | 541 kts | 159° |
| 2026-05-06 16:54 | 34.45314 | -78.32517 | 34995 ft | 544 kts | 160° |
| 2026-05-06 16:55 | 34.38557 | -78.28468 | 34986 ft | 544 kts | 160° |
| 2026-05-06 16:55 | 34.31760 | -78.24394 | 34997 ft | 547 kts | 160° |
| 2026-05-06 16:56 | 34.24906 | -78.20274 | 35007 ft | 548 kts | 159° |